UAE707 FSIA-FMMI
Flight info
| Callsign | UAE707 |
|---|---|
| Flight time | N/A |
| Altitude | 38000 |
| Route | OKLIM T113 NORSI UL441 GATLA GATLA1Z |
| Aircraft | B77W/H-SDE1E2E3FGHIJ2J3J4J5M1RWXY/LB1D1 |
Departure
| Time | N/A |
|---|---|
| Airport | Seychelles International Airport (FSIA) |
Arrival
| Time | 2026-04-28 11:20 |
|---|---|
| Airport | Ivato International Airport (FMMI) |
| Time | Latitude | Longitude | Altitude | Speed | Heading |
|---|---|---|---|---|---|
| 2026-04-28 09:13 | -5.32979 | 54.93569 | 27663 ft | 471 kts | 202° |
| 2026-04-28 09:13 | -5.36011 | 54.92291 | 28101 ft | 475 kts | 202° |
| 2026-04-28 09:13 | -5.39067 | 54.91003 | 28562 ft | 477 kts | 203° |
| 2026-04-28 09:13 | -5.42141 | 54.89707 | 29004 ft | 480 kts | 203° |
| 2026-04-28 09:14 | -5.45186 | 54.88423 | 29454 ft | 482 kts | 203° |
| 2026-04-28 09:14 | -5.48289 | 54.87115 | 29857 ft | 485 kts | 203° |
| 2026-04-28 09:14 | -5.51404 | 54.85801 | 30280 ft | 487 kts | 203° |
| 2026-04-28 09:14 | -5.54536 | 54.84480 | 30564 ft | 492 kts | 203° |
| 2026-04-28 09:15 | -5.57709 | 54.83141 | 30924 ft | 495 kts | 203° |
| 2026-04-28 09:15 | -5.60882 | 54.81802 | 31325 ft | 496 kts | 203° |
| 2026-04-28 09:15 | -5.64067 | 54.80458 | 31704 ft | 497 kts | 203° |
| 2026-04-28 09:15 | -5.67261 | 54.79111 | 32168 ft | 496 kts | 203° |
| 2026-04-28 09:16 | -5.70443 | 54.77767 | 32621 ft | 496 kts | 203° |
| 2026-04-28 09:16 | -5.73620 | 54.76426 | 33050 ft | 496 kts | 203° |
| 2026-04-28 09:16 | -5.76796 | 54.75085 | 33474 ft | 496 kts | 203° |
| 2026-04-28 09:16 | -5.79934 | 54.73761 | 33909 ft | 495 kts | 204° |
| 2026-04-28 09:17 | -5.83107 | 54.72421 | 34337 ft | 494 kts | 204° |
| 2026-04-28 09:17 | -5.86271 | 54.71084 | 34782 ft | 493 kts | 204° |
| 2026-04-28 09:17 | -5.89434 | 54.69749 | 35205 ft | 492 kts | 204° |
| 2026-04-28 09:17 | -5.92588 | 54.68416 | 35618 ft | 491 kts | 204° |
| 2026-04-28 09:18 | -5.95727 | 54.67090 | 36005 ft | 490 kts | 203° |
| 2026-04-28 09:18 | -5.98873 | 54.65760 | 36383 ft | 489 kts | 204° |
| 2026-04-28 09:18 | -6.02007 | 54.64436 | 36758 ft | 488 kts | 204° |
| 2026-04-28 09:18 | -6.05127 | 54.63118 | 37149 ft | 487 kts | 204° |
| 2026-04-28 09:19 | -6.08205 | 54.61817 | 37482 ft | 486 kts | 204° |
| 2026-04-28 09:19 | -6.11320 | 54.60500 | 37806 ft | 485 kts | 204° |
| 2026-04-28 09:19 | -6.14439 | 54.59181 | 37892 ft | 487 kts | 204° |
| 2026-04-28 09:20 | -6.20674 | 54.56544 | 37879 ft | 485 kts | 204° |
| 2026-04-28 09:20 | -6.26893 | 54.53914 | 37878 ft | 485 kts | 204° |
| 2026-04-28 09:21 | -6.33112 | 54.51282 | 37865 ft | 485 kts | 204° |
| 2026-04-28 09:21 | -6.39333 | 54.48649 | 37850 ft | 485 kts | 203° |
| 2026-04-28 09:22 | -6.45516 | 54.46031 | 37850 ft | 486 kts | 203° |
| 2026-04-28 09:22 | -6.51767 | 54.43385 | 37850 ft | 487 kts | 203° |
| 2026-04-28 09:23 | -6.58013 | 54.40739 | 37850 ft | 488 kts | 203° |
| 2026-04-28 09:23 | -6.64270 | 54.38088 | 37850 ft | 488 kts | 203° |
| 2026-04-28 09:24 | -6.70480 | 54.35456 | 37851 ft | 488 kts | 203° |
| 2026-04-28 09:24 | -6.76728 | 54.32808 | 37851 ft | 487 kts | 203° |
| 2026-04-28 09:25 | -6.82980 | 54.30157 | 37851 ft | 487 kts | 203° |
| 2026-04-28 09:25 | -6.89234 | 54.27504 | 37851 ft | 487 kts | 203° |
| 2026-04-28 09:26 | -6.95478 | 54.24855 | 37852 ft | 487 kts | 203° |
| 2026-04-28 09:26 | -7.01687 | 54.22221 | 37852 ft | 487 kts | 203° |
| 2026-04-28 09:27 | -7.11055 | 54.18243 | 37852 ft | 487 kts | 203° |
| 2026-04-28 09:27 | -7.17300 | 54.15589 | 37852 ft | 487 kts | 203° |
| 2026-04-28 09:28 | -7.23540 | 54.12938 | 37853 ft | 487 kts | 203° |
| 2026-04-28 09:28 | -7.29644 | 54.10061 | 37854 ft | 487 kts | 208° |
| 2026-04-28 09:29 | -7.35566 | 54.06745 | 37854 ft | 487 kts | 210° |
| 2026-04-28 09:29 | -7.41467 | 54.03390 | 37854 ft | 486 kts | 209° |
| 2026-04-28 09:30 | -7.47390 | 54.00094 | 37854 ft | 486 kts | 209° |
| 2026-04-28 09:30 | -7.53310 | 53.96824 | 37854 ft | 486 kts | 209° |
| 2026-04-28 09:31 | -7.59208 | 53.93579 | 37854 ft | 486 kts | 209° |
| 2026-04-28 09:31 | -7.65133 | 53.90322 | 37854 ft | 486 kts | 209° |
| 2026-04-28 09:32 | -7.71072 | 53.87055 | 37854 ft | 486 kts | 209° |
| 2026-04-28 09:32 | -7.76998 | 53.83794 | 37854 ft | 486 kts | 209° |
| 2026-04-28 09:33 | -7.82886 | 53.80552 | 37854 ft | 486 kts | 209° |
| 2026-04-28 09:33 | -7.88816 | 53.77287 | 37854 ft | 486 kts | 209° |
| 2026-04-28 09:34 | -7.94746 | 53.74020 | 37854 ft | 486 kts | 209° |
| 2026-04-28 09:34 | -8.00677 | 53.70752 | 37855 ft | 486 kts | 209° |
| 2026-04-28 09:35 | -8.06607 | 53.67484 | 37855 ft | 485 kts | 209° |
| 2026-04-28 09:35 | -8.12496 | 53.64236 | 37855 ft | 485 kts | 209° |
| 2026-04-28 09:36 | -8.18413 | 53.60973 | 37854 ft | 485 kts | 209° |
| 2026-04-28 09:36 | -8.24330 | 53.57708 | 37855 ft | 485 kts | 209° |
| 2026-04-28 09:37 | -8.30255 | 53.54437 | 37854 ft | 485 kts | 209° |
| 2026-04-28 09:37 | -8.36128 | 53.51194 | 37855 ft | 484 kts | 209° |
| 2026-04-28 09:38 | -8.42034 | 53.47932 | 37856 ft | 484 kts | 210° |
| 2026-04-28 09:38 | -8.47936 | 53.44671 | 37856 ft | 484 kts | 210° |
| 2026-04-28 09:39 | -8.53845 | 53.41405 | 37855 ft | 483 kts | 210° |
| 2026-04-28 09:39 | -8.59734 | 53.38149 | 37855 ft | 483 kts | 210° |
| 2026-04-28 09:40 | -8.65596 | 53.34906 | 37856 ft | 483 kts | 210° |
| 2026-04-28 09:40 | -8.71486 | 53.31647 | 37856 ft | 483 kts | 210° |
| 2026-04-28 09:41 | -8.77370 | 53.28390 | 37856 ft | 482 kts | 210° |
| 2026-04-28 09:41 | -8.83254 | 53.25132 | 37856 ft | 482 kts | 210° |
| 2026-04-28 09:42 | -8.89093 | 53.21898 | 37856 ft | 481 kts | 210° |
| 2026-04-28 09:42 | -8.94961 | 53.18646 | 37856 ft | 481 kts | 210° |
| 2026-04-28 09:43 | -9.00830 | 53.15392 | 37856 ft | 481 kts | 210° |
| 2026-04-28 09:43 | -9.06703 | 53.12135 | 37856 ft | 481 kts | 210° |
| 2026-04-28 09:44 | -9.12564 | 53.08884 | 37856 ft | 480 kts | 210° |
| 2026-04-28 09:44 | -9.18381 | 53.05655 | 37855 ft | 480 kts | 210° |
| 2026-04-28 09:45 | -9.24240 | 53.02402 | 37856 ft | 480 kts | 210° |
| 2026-04-28 09:45 | -9.30099 | 52.99148 | 37856 ft | 480 kts | 210° |
| 2026-04-28 09:46 | -9.35956 | 52.95894 | 37857 ft | 480 kts | 210° |
| 2026-04-28 09:46 | -9.41803 | 52.92644 | 37857 ft | 480 kts | 210° |
| 2026-04-28 09:47 | -9.47614 | 52.89413 | 37857 ft | 479 kts | 210° |
| 2026-04-28 09:47 | -9.53458 | 52.86162 | 37857 ft | 479 kts | 210° |
| 2026-04-28 09:48 | -9.59303 | 52.82909 | 37856 ft | 479 kts | 210° |
| 2026-04-28 09:48 | -9.65143 | 52.79658 | 37856 ft | 479 kts | 210° |
| 2026-04-28 09:49 | -9.70943 | 52.76427 | 37858 ft | 479 kts | 210° |
| 2026-04-28 09:49 | -9.76782 | 52.73178 | 37860 ft | 479 kts | 210° |
| 2026-04-28 09:50 | -9.82617 | 52.69925 | 37859 ft | 478 kts | 210° |
| 2026-04-28 09:50 | -9.88444 | 52.66674 | 37859 ft | 478 kts | 210° |
| 2026-04-28 09:51 | -9.94261 | 52.63427 | 37857 ft | 477 kts | 210° |
| 2026-04-28 09:51 | -10.00041 | 52.60200 | 37857 ft | 477 kts | 210° |
| 2026-04-28 09:52 | -10.05856 | 52.56957 | 37857 ft | 477 kts | 210° |
| 2026-04-28 09:52 | -10.11670 | 52.53712 | 37857 ft | 476 kts | 210° |
| 2026-04-28 09:53 | -10.17468 | 52.50474 | 37857 ft | 476 kts | 210° |
| 2026-04-28 09:53 | -10.23234 | 52.47250 | 37856 ft | 476 kts | 210° |
| 2026-04-28 09:54 | -10.29033 | 52.44008 | 37856 ft | 476 kts | 210° |
| 2026-04-28 09:54 | -10.34832 | 52.40771 | 37856 ft | 476 kts | 210° |
| 2026-04-28 09:55 | -10.40639 | 52.37526 | 37857 ft | 476 kts | 210° |
| 2026-04-28 09:55 | -10.46434 | 52.34284 | 37856 ft | 476 kts | 210° |
| 2026-04-28 09:56 | -10.52198 | 52.31058 | 37858 ft | 476 kts | 210° |
| 2026-04-28 09:56 | -10.58000 | 52.27809 | 37859 ft | 476 kts | 210° |
| 2026-04-28 09:57 | -10.63797 | 52.24561 | 37859 ft | 476 kts | 210° |
| 2026-04-28 09:57 | -10.69604 | 52.21306 | 37857 ft | 476 kts | 210° |
| 2026-04-28 09:58 | -10.75368 | 52.18074 | 37859 ft | 476 kts | 210° |
| 2026-04-28 09:58 | -10.81160 | 52.14825 | 37858 ft | 475 kts | 210° |
| 2026-04-28 09:59 | -10.86946 | 52.11578 | 37858 ft | 475 kts | 210° |
| 2026-04-28 09:59 | -10.92733 | 52.08328 | 37858 ft | 475 kts | 209° |
| 2026-04-28 10:00 | -10.98521 | 52.05077 | 37857 ft | 475 kts | 209° |
| 2026-04-28 10:00 | -11.04273 | 52.01844 | 37857 ft | 475 kts | 209° |
| 2026-04-28 10:01 | -11.10062 | 51.98589 | 37857 ft | 475 kts | 209° |
| 2026-04-28 10:01 | -11.15844 | 51.95335 | 37857 ft | 474 kts | 208° |
| 2026-04-28 10:02 | -11.21602 | 51.92095 | 37857 ft | 473 kts | 208° |
| 2026-04-28 10:02 | -11.27359 | 51.88854 | 37856 ft | 473 kts | 208° |
| 2026-04-28 10:03 | -11.33112 | 51.85613 | 37856 ft | 473 kts | 208° |
| 2026-04-28 10:03 | -11.38836 | 51.82388 | 37856 ft | 473 kts | 208° |
| 2026-04-28 10:04 | -11.44591 | 51.79148 | 37856 ft | 473 kts | 208° |
| 2026-04-28 10:04 | -11.50347 | 51.75900 | 37855 ft | 473 kts | 208° |
| 2026-04-28 10:05 | -11.56059 | 51.72673 | 37855 ft | 473 kts | 208° |
| 2026-04-28 10:05 | -11.61814 | 51.69422 | 37855 ft | 472 kts | 208° |
| 2026-04-28 10:06 | -11.67561 | 51.66174 | 37854 ft | 472 kts | 208° |
| 2026-04-28 10:06 | -11.73314 | 51.62929 | 37853 ft | 472 kts | 208° |
| 2026-04-28 10:07 | -11.79064 | 51.59684 | 37853 ft | 473 kts | 208° |
| 2026-04-28 10:07 | -11.84785 | 51.56454 | 37853 ft | 473 kts | 208° |
| 2026-04-28 10:08 | -11.90540 | 51.53209 | 37853 ft | 473 kts | 208° |
| 2026-04-28 10:08 | -11.96295 | 51.49955 | 37852 ft | 473 kts | 208° |
| 2026-04-28 10:09 | -12.02039 | 51.46704 | 37852 ft | 473 kts | 208° |
| 2026-04-28 10:09 | -12.07752 | 51.43469 | 37852 ft | 472 kts | 207° |
| 2026-04-28 10:10 | -12.13494 | 51.40217 | 37852 ft | 472 kts | 207° |
| 2026-04-28 10:10 | -12.19229 | 51.36974 | 37852 ft | 471 kts | 207° |
| 2026-04-28 10:11 | -12.24967 | 51.33725 | 37852 ft | 471 kts | 207° |
| 2026-04-28 10:11 | -12.30664 | 51.30497 | 37852 ft | 471 kts | 207° |
| 2026-04-28 10:12 | -12.36391 | 51.27248 | 37860 ft | 471 kts | 207° |
| 2026-04-28 10:12 | -12.42118 | 51.23999 | 37864 ft | 471 kts | 207° |
| 2026-04-28 10:13 | -12.47853 | 51.20752 | 37864 ft | 471 kts | 207° |
| 2026-04-28 10:13 | -12.53540 | 51.17528 | 37864 ft | 470 kts | 207° |
| 2026-04-28 10:14 | -12.59258 | 51.14282 | 37864 ft | 470 kts | 207° |
| 2026-04-28 10:14 | -12.64977 | 51.11033 | 37864 ft | 470 kts | 207° |
| 2026-04-28 10:15 | -12.70690 | 51.07786 | 37865 ft | 470 kts | 207° |
| 2026-04-28 10:15 | -12.76371 | 51.04555 | 37865 ft | 470 kts | 207° |
| 2026-04-28 10:16 | -12.82085 | 51.01304 | 37865 ft | 470 kts | 207° |
| 2026-04-28 10:16 | -12.87796 | 50.98052 | 37865 ft | 470 kts | 206° |
| 2026-04-28 10:17 | -12.93507 | 50.94799 | 37865 ft | 470 kts | 207° |
| 2026-04-28 10:17 | -12.99219 | 50.91544 | 37865 ft | 470 kts | 206° |
| 2026-04-28 10:18 | -13.04889 | 50.88311 | 37865 ft | 469 kts | 206° |
| 2026-04-28 10:18 | -13.10594 | 50.85056 | 37866 ft | 469 kts | 206° |
| 2026-04-28 10:19 | -13.16299 | 50.81799 | 37866 ft | 470 kts | 206° |
| 2026-04-28 10:19 | -13.22010 | 50.78537 | 37867 ft | 470 kts | 206° |
| 2026-04-28 10:20 | -13.27679 | 50.75297 | 37867 ft | 469 kts | 206° |
| 2026-04-28 10:20 | -13.33379 | 50.72038 | 37868 ft | 469 kts | 206° |
| 2026-04-28 10:21 | -13.38128 | 50.69327 | 37851 ft | 469 kts | 206° |
| 2026-04-28 10:21 | -13.43834 | 50.66062 | 37853 ft | 469 kts | 206° |
| 2026-04-28 10:22 | -13.50460 | 50.62264 | 37854 ft | 470 kts | 206° |
| 2026-04-28 10:22 | -13.56164 | 50.58993 | 37854 ft | 470 kts | 206° |
| 2026-04-28 10:23 | -13.60908 | 50.56273 | 37854 ft | 470 kts | 206° |
| 2026-04-28 10:23 | -13.66622 | 50.52993 | 37855 ft | 470 kts | 206° |
| 2026-04-28 10:24 | -13.72331 | 50.49714 | 37855 ft | 470 kts | 206° |
| 2026-04-28 10:24 | -13.78035 | 50.46435 | 37856 ft | 470 kts | 206° |
| 2026-04-28 10:25 | -13.83706 | 50.43171 | 37856 ft | 470 kts | 206° |
| 2026-04-28 10:25 | -13.89404 | 50.39891 | 37857 ft | 470 kts | 206° |
| 2026-04-28 10:26 | -13.95111 | 50.36609 | 37857 ft | 470 kts | 206° |
| 2026-04-28 10:26 | -14.00815 | 50.33331 | 37858 ft | 470 kts | 206° |
| 2026-04-28 10:27 | -14.06527 | 50.30045 | 37858 ft | 470 kts | 206° |
| 2026-04-28 10:27 | -14.12191 | 50.26777 | 37858 ft | 470 kts | 206° |
| 2026-04-28 10:28 | -14.17892 | 50.23485 | 37859 ft | 470 kts | 206° |
| 2026-04-28 10:29 | -14.26442 | 50.18546 | 37880 ft | 470 kts | 206° |
| 2026-04-28 10:29 | -14.32129 | 50.15308 | 37882 ft | 470 kts | 205° |
| 2026-04-28 10:30 | -14.37878 | 50.12106 | 37882 ft | 469 kts | 206° |
| 2026-04-28 10:30 | -14.43612 | 50.08896 | 37882 ft | 469 kts | 206° |
| 2026-04-28 10:31 | -14.49341 | 50.05682 | 37882 ft | 469 kts | 206° |
| 2026-04-28 10:31 | -14.55077 | 50.02461 | 37882 ft | 469 kts | 206° |
| 2026-04-28 10:32 | -14.60768 | 49.99269 | 37883 ft | 469 kts | 206° |
| 2026-04-28 10:32 | -14.66487 | 49.96061 | 37883 ft | 468 kts | 206° |
| 2026-04-28 10:33 | -14.72211 | 49.92844 | 37883 ft | 468 kts | 206° |
| 2026-04-28 10:33 | -14.77936 | 49.89631 | 37884 ft | 468 kts | 206° |
| 2026-04-28 10:34 | -14.83650 | 49.86413 | 37884 ft | 468 kts | 206° |
| 2026-04-28 10:34 | -14.89327 | 49.83212 | 37884 ft | 467 kts | 206° |
| 2026-04-28 10:35 | -14.95031 | 49.79994 | 37884 ft | 467 kts | 206° |
| 2026-04-28 10:35 | -15.00737 | 49.76776 | 37885 ft | 467 kts | 206° |
| 2026-04-28 10:36 | -15.06358 | 49.73500 | 37885 ft | 467 kts | 207° |
| 2026-04-28 10:36 | -15.11989 | 49.70181 | 37886 ft | 466 kts | 207° |
| 2026-04-28 10:37 | -15.17625 | 49.66865 | 37886 ft | 466 kts | 207° |
| 2026-04-28 10:37 | -15.23259 | 49.63552 | 37887 ft | 465 kts | 207° |
| 2026-04-28 10:38 | -15.28886 | 49.60242 | 37887 ft | 465 kts | 207° |
| 2026-04-28 10:38 | -15.34483 | 49.56956 | 37888 ft | 465 kts | 207° |
| 2026-04-28 10:39 | -15.40106 | 49.53653 | 37888 ft | 465 kts | 207° |
| 2026-04-28 10:39 | -15.45732 | 49.50342 | 37889 ft | 465 kts | 207° |
| 2026-04-28 10:40 | -15.51352 | 49.47031 | 37889 ft | 464 kts | 207° |
| 2026-04-28 10:40 | -15.56964 | 49.43723 | 37889 ft | 464 kts | 207° |
| 2026-04-28 10:41 | -15.62545 | 49.40431 | 37890 ft | 464 kts | 207° |
| 2026-04-28 10:41 | -15.68156 | 49.37118 | 37887 ft | 464 kts | 207° |
| 2026-04-28 10:42 | -15.73770 | 49.33802 | 37928 ft | 464 kts | 207° |
| 2026-04-28 10:42 | -15.79382 | 49.30494 | 37934 ft | 464 kts | 207° |
| 2026-04-28 10:43 | -15.84994 | 49.27173 | 37931 ft | 464 kts | 207° |
| 2026-04-28 10:43 | -15.90566 | 49.23872 | 37924 ft | 464 kts | 207° |
| 2026-04-28 10:44 | -15.96165 | 49.20554 | 37926 ft | 463 kts | 207° |
| 2026-04-28 10:44 | -16.01768 | 49.17233 | 37927 ft | 463 kts | 207° |
| 2026-04-28 10:45 | -16.07374 | 49.13949 | 37928 ft | 462 kts | 207° |
| 2026-04-28 10:45 | -16.12964 | 49.10690 | 37929 ft | 460 kts | 207° |
| 2026-04-28 10:46 | -16.18503 | 49.07452 | 37930 ft | 460 kts | 207° |
| 2026-04-28 10:46 | -16.24085 | 49.04185 | 37931 ft | 460 kts | 208° |
| 2026-04-28 10:47 | -16.29663 | 49.00919 | 37932 ft | 460 kts | 208° |
| 2026-04-28 10:47 | -16.35240 | 48.97662 | 37933 ft | 460 kts | 207° |
| 2026-04-28 10:48 | -16.40780 | 48.94426 | 37934 ft | 459 kts | 208° |
| 2026-04-28 10:48 | -16.46345 | 48.91161 | 37935 ft | 459 kts | 208° |
| 2026-04-28 10:49 | -16.51913 | 48.87891 | 37936 ft | 459 kts | 208° |
| 2026-04-28 10:49 | -16.57479 | 48.84621 | 37936 ft | 459 kts | 208° |
| 2026-04-28 10:50 | -16.62962 | 48.81222 | 37938 ft | 459 kts | 213° |
| 2026-04-28 10:50 | -16.68077 | 48.77315 | 37937 ft | 458 kts | 212° |
| 2026-04-28 10:51 | -16.73680 | 48.74182 | 37934 ft | 458 kts | 204° |
| 2026-04-28 10:51 | -16.79450 | 48.71360 | 37934 ft | 458 kts | 205° |
| 2026-04-28 10:52 | -16.85117 | 48.68302 | 37936 ft | 458 kts | 207° |
| 2026-04-28 10:52 | -16.90683 | 48.65067 | 37937 ft | 458 kts | 208° |
| 2026-04-28 10:53 | -16.96197 | 48.61821 | 37938 ft | 458 kts | 208° |
| 2026-04-28 10:53 | -17.01740 | 48.58554 | 37939 ft | 458 kts | 208° |
| 2026-04-28 10:54 | -17.07290 | 48.55277 | 37940 ft | 458 kts | 208° |
| 2026-04-28 10:54 | -17.12826 | 48.52005 | 37942 ft | 458 kts | 208° |
| 2026-04-28 10:55 | -17.18364 | 48.48730 | 37943 ft | 457 kts | 209° |
| 2026-04-28 10:55 | -17.23857 | 48.45478 | 37945 ft | 457 kts | 209° |
| 2026-04-28 10:56 | -17.29395 | 48.42198 | 37947 ft | 457 kts | 209° |
| 2026-04-28 10:56 | -17.34916 | 48.38925 | 37879 ft | 452 kts | 209° |
| 2026-04-28 10:56 | -17.37641 | 48.37309 | 37468 ft | 448 kts | 209° |
| 2026-04-28 10:57 | -17.40354 | 48.35699 | 36676 ft | 451 kts | 209° |
| 2026-04-28 10:57 | -17.43066 | 48.34090 | 35961 ft | 453 kts | 209° |
| 2026-04-28 10:57 | -17.45802 | 48.32465 | 35370 ft | 451 kts | 208° |
| 2026-04-28 10:57 | -17.48513 | 48.30855 | 34844 ft | 447 kts | 208° |
| 2026-04-28 10:58 | -17.51202 | 48.29257 | 34335 ft | 443 kts | 208° |
| 2026-04-28 10:58 | -17.53868 | 48.27673 | 33842 ft | 440 kts | 208° |
| 2026-04-28 10:58 | -17.56522 | 48.26095 | 33371 ft | 436 kts | 208° |
| 2026-04-28 10:58 | -17.59160 | 48.24526 | 32921 ft | 435 kts | 208° |
| 2026-04-28 10:59 | -17.61785 | 48.22965 | 32504 ft | 434 kts | 208° |
| 2026-04-28 10:59 | -17.64404 | 48.21406 | 32090 ft | 432 kts | 208° |
| 2026-04-28 10:59 | -17.67014 | 48.19852 | 31682 ft | 430 kts | 207° |
| 2026-04-28 10:59 | -17.69579 | 48.18325 | 31276 ft | 428 kts | 207° |
| 2026-04-28 11:00 | -17.72163 | 48.16785 | 30867 ft | 426 kts | 207° |
| 2026-04-28 11:00 | -17.74729 | 48.15256 | 30458 ft | 423 kts | 207° |
| 2026-04-28 11:00 | -17.77273 | 48.13739 | 30054 ft | 419 kts | 207° |
| 2026-04-28 11:00 | -17.79797 | 48.12234 | 29638 ft | 416 kts | 207° |
| 2026-04-28 11:01 | -17.82303 | 48.10740 | 29164 ft | 415 kts | 207° |
| 2026-04-28 11:01 | -17.84812 | 48.09243 | 28679 ft | 414 kts | 207° |
| 2026-04-28 11:01 | -17.87307 | 48.07753 | 28191 ft | 413 kts | 207° |
| 2026-04-28 11:01 | -17.89803 | 48.06263 | 27702 ft | 412 kts | 207° |
| 2026-04-28 11:02 | -17.92294 | 48.04775 | 27216 ft | 411 kts | 207° |
| 2026-04-28 11:02 | -17.94744 | 48.03311 | 26737 ft | 410 kts | 207° |
| 2026-04-28 11:02 | -17.97220 | 48.01831 | 26251 ft | 410 kts | 207° |
| 2026-04-28 11:02 | -17.99697 | 48.00350 | 25764 ft | 409 kts | 207° |
| 2026-04-28 11:03 | -18.02162 | 47.98876 | 25278 ft | 409 kts | 207° |
| 2026-04-28 11:03 | -18.04635 | 47.97396 | 24787 ft | 408 kts | 207° |
| 2026-04-28 11:03 | -18.07100 | 47.95921 | 24296 ft | 407 kts | 207° |
| 2026-04-28 11:03 | -18.09556 | 47.94450 | 23805 ft | 405 kts | 207° |
| 2026-04-28 11:04 | -18.11990 | 47.92993 | 23325 ft | 402 kts | 207° |
| 2026-04-28 11:04 | -18.14411 | 47.91543 | 22849 ft | 399 kts | 207° |
| 2026-04-28 11:04 | -18.16780 | 47.90123 | 22380 ft | 395 kts | 207° |
| 2026-04-28 11:04 | -18.19157 | 47.88698 | 21917 ft | 392 kts | 207° |
| 2026-04-28 11:05 | -18.21521 | 47.87280 | 21443 ft | 389 kts | 207° |
| 2026-04-28 11:05 | -18.23860 | 47.85878 | 20977 ft | 386 kts | 207° |
| 2026-04-28 11:05 | -18.26189 | 47.84484 | 20509 ft | 383 kts | 207° |
| 2026-04-28 11:05 | -18.28504 | 47.83099 | 20042 ft | 381 kts | 207° |
| 2026-04-28 11:06 | -18.30790 | 47.81728 | 19579 ft | 378 kts | 207° |
| 2026-04-28 11:06 | -18.33071 | 47.80357 | 19110 ft | 375 kts | 207° |
| 2026-04-28 11:06 | -18.35326 | 47.79001 | 18645 ft | 373 kts | 207° |
| 2026-04-28 11:06 | -18.37576 | 47.77648 | 18177 ft | 371 kts | 207° |
| 2026-04-28 11:07 | -18.39773 | 47.76326 | 17963 ft | 365 kts | 207° |
| 2026-04-28 11:07 | -18.41949 | 47.75016 | 17899 ft | 355 kts | 207° |
| 2026-04-28 11:07 | -18.44057 | 47.73746 | 17833 ft | 343 kts | 207° |
| 2026-04-28 11:07 | -18.46096 | 47.72519 | 17699 ft | 333 kts | 207° |
| 2026-04-28 11:08 | -18.48081 | 47.71324 | 17487 ft | 326 kts | 207° |
| 2026-04-28 11:08 | -18.50034 | 47.70127 | 17136 ft | 323 kts | 210° |
| 2026-04-28 11:08 | -18.51688 | 47.68525 | 16667 ft | 329 kts | 231° |
| 2026-04-28 11:08 | -18.52668 | 47.66342 | 16299 ft | 332 kts | 250° |
| 2026-04-28 11:09 | -18.53042 | 47.63954 | 15994 ft | 331 kts | 265° |
| 2026-04-28 11:09 | -18.53004 | 47.61567 | 15667 ft | 329 kts | 270° |
| 2026-04-28 11:09 | -18.52857 | 47.59158 | 15299 ft | 329 kts | 273° |
| 2026-04-28 11:09 | -18.52586 | 47.56768 | 14965 ft | 327 kts | 275° |
| 2026-04-28 11:10 | -18.52359 | 47.54393 | 14632 ft | 325 kts | 274° |
| 2026-04-28 11:10 | -18.52193 | 47.52033 | 14318 ft | 321 kts | 271° |
| 2026-04-28 11:10 | -18.52156 | 47.49692 | 13957 ft | 320 kts | 266° |
| 2026-04-28 11:10 | -18.52423 | 47.47378 | 13619 ft | 317 kts | 259° |
| 2026-04-28 11:11 | -18.52848 | 47.45133 | 13308 ft | 315 kts | 257° |
| 2026-04-28 11:11 | -18.53362 | 47.42901 | 12986 ft | 313 kts | 253° |
| 2026-04-28 11:11 | -18.54103 | 47.40753 | 12660 ft | 311 kts | 246° |
| 2026-04-28 11:11 | -18.55032 | 47.38705 | 12326 ft | 310 kts | 243° |
| 2026-04-28 11:12 | -18.56011 | 47.36687 | 12009 ft | 308 kts | 242° |
| 2026-04-28 11:12 | -18.57083 | 47.34737 | 11725 ft | 306 kts | 236° |
| 2026-04-28 11:12 | -18.58357 | 47.32948 | 11412 ft | 305 kts | 231° |
| 2026-04-28 11:12 | -18.59737 | 47.31272 | 11110 ft | 302 kts | 226° |
| 2026-04-28 11:13 | -18.61270 | 47.29758 | 10802 ft | 300 kts | 220° |
| 2026-04-28 11:13 | -18.62846 | 47.28407 | 10714 ft | 284 kts | 218° |
| 2026-04-28 11:13 | -18.64356 | 47.27204 | 10575 ft | 269 kts | 214° |
| 2026-04-28 11:13 | -18.65921 | 47.26178 | 10244 ft | 262 kts | 209° |
| 2026-04-28 11:14 | -18.67511 | 47.25284 | 9855 ft | 257 kts | 206° |
| 2026-04-28 11:14 | -18.69105 | 47.24458 | 9453 ft | 254 kts | 205° |
| 2026-04-28 11:14 | -18.70739 | 47.23767 | 9033 ft | 251 kts | 198° |
| 2026-04-28 11:14 | -18.72405 | 47.23245 | 8613 ft | 249 kts | 194° |
| 2026-04-28 11:15 | -18.74110 | 47.23138 | 8113 ft | 247 kts | 169° |
| 2026-04-28 11:15 | -18.75659 | 47.23866 | 7667 ft | 244 kts | 144° |
| 2026-04-28 11:15 | -18.76681 | 47.25258 | 7230 ft | 242 kts | 114° |
| 2026-04-28 11:15 | -18.76982 | 47.26934 | 7146 ft | 225 kts | 98° |
| 2026-04-28 11:16 | -18.77105 | 47.28552 | 7162 ft | 219 kts | 96° |
| 2026-04-28 11:16 | -18.77185 | 47.30139 | 7106 ft | 220 kts | 94° |
| 2026-04-28 11:16 | -18.77252 | 47.31757 | 7045 ft | 218 kts | 95° |
| 2026-04-28 11:16 | -18.77420 | 47.33296 | 6985 ft | 208 kts | 98° |
| 2026-04-28 11:17 | -18.77654 | 47.34779 | 6798 ft | 199 kts | 100° |
| 2026-04-28 11:17 | -18.77907 | 47.36157 | 6555 ft | 185 kts | 102° |
| 2026-04-28 11:17 | -18.78150 | 47.37445 | 6232 ft | 171 kts | 100° |
| 2026-04-28 11:17 | -18.78315 | 47.38616 | 5948 ft | 155 kts | 99° |
| 2026-04-28 11:18 | -18.78462 | 47.39725 | 5664 ft | 151 kts | 98° |
| 2026-04-28 11:18 | -18.78615 | 47.40808 | 5433 ft | 148 kts | 99° |
| 2026-04-28 11:18 | -18.78772 | 47.41861 | 5177 ft | 147 kts | 99° |
| 2026-04-28 11:18 | -18.78946 | 47.42927 | 4924 ft | 147 kts | 99° |
| 2026-04-28 11:19 | -18.79106 | 47.43986 | 4677 ft | 148 kts | 100° |
| 2026-04-28 11:19 | -18.79272 | 47.45058 | 4464 ft | 147 kts | 100° |
| 2026-04-28 11:19 | -18.79430 | 47.46119 | 4268 ft | 146 kts | 99° |
| 2026-04-28 11:19 | -18.79589 | 47.47155 | 4214 ft | 134 kts | 99° |
| 2026-04-28 11:20 | -18.79713 | 47.47964 | 4212 ft | 87 kts | 99° |
| 2026-04-28 11:20 | -18.79787 | 47.48461 | 4212 ft | 59 kts | 99° |
| 2026-04-28 11:20 | -18.79842 | 47.48829 | 4212 ft | 43 kts | 98° |
| 2026-04-28 11:20 | -18.79875 | 47.49071 | 4212 ft | 28 kts | 98° |
| 2026-04-28 11:21 | -18.79890 | 47.49184 | 4212 ft | 10 kts | 101° |
| 2026-04-28 11:21 | -18.79917 | 47.49243 | 4212 ft | 7 kts | 135° |
| 2026-04-28 11:21 | -18.79931 | 47.49277 | 4212 ft | 4 kts | 85° |
| 2026-04-28 11:21 | -18.79918 | 47.49298 | 4212 ft | 3 kts | 37° |
| 2026-04-28 11:22 | -18.79898 | 47.49303 | 4212 ft | 4 kts | 353° |
| 2026-04-28 11:22 | -18.79884 | 47.49281 | 4212 ft | 7 kts | 271° |
| 2026-04-28 11:22 | -18.79881 | 47.49186 | 4212 ft | 14 kts | 274° |
| 2026-04-28 11:22 | -18.79871 | 47.49085 | 4212 ft | 15 kts | 277° |
| 2026-04-28 11:23 | -18.79858 | 47.48974 | 4212 ft | 15 kts | 277° |
| 2026-04-28 11:23 | -18.79844 | 47.48880 | 4212 ft | 17 kts | 279° |
| 2026-04-28 11:23 | -18.79826 | 47.48761 | 4212 ft | 16 kts | 279° |
| 2026-04-28 11:23 | -18.79810 | 47.48649 | 4212 ft | 15 kts | 279° |
| 2026-04-28 11:24 | -18.79794 | 47.48544 | 4212 ft | 14 kts | 279° |
| 2026-04-28 11:24 | -18.79778 | 47.48442 | 4212 ft | 15 kts | 279° |
| 2026-04-28 11:24 | -18.79758 | 47.48319 | 4212 ft | 17 kts | 279° |
| 2026-04-28 11:24 | -18.79740 | 47.48199 | 4212 ft | 16 kts | 279° |
| 2026-04-28 11:25 | -18.79745 | 47.48135 | 4212 ft | 6 kts | 224° |
| 2026-04-28 11:25 | -18.79797 | 47.48110 | 4212 ft | 10 kts | 191° |
| 2026-04-28 11:25 | -18.79861 | 47.48097 | 4212 ft | 9 kts | 190° |
| 2026-04-28 11:25 | -18.79902 | 47.48054 | 4212 ft | 9 kts | 261° |
| 2026-04-28 11:26 | -18.79897 | 47.47992 | 4212 ft | 6 kts | 278° |
| 2026-04-28 11:26 | -18.79895 | 47.47950 | 4212 ft | 6 kts | 257° |
| 2026-04-28 11:26 | -18.79911 | 47.47930 | 4212 ft | 3 kts | 212° |
| 2026-04-28 11:26 | -18.79930 | 47.47921 | 4212 ft | 3 kts | 200° |
| 2026-04-28 11:27 | -18.79947 | 47.47916 | 4212 ft | 2 kts | 193° |
| 2026-04-28 11:27 | -18.79962 | 47.47913 | 4212 ft | 2 kts | 190° |
| 2026-04-28 11:27 | -18.79974 | 47.47911 | 4212 ft | 2 kts | 188° |
| 2026-04-28 11:27 | -18.79982 | 47.47910 | 4212 ft | 0 kts | 188° |